createdAt,value
2022-10-12T00:00:16.759Z,8.48
2022-10-12T00:02:43.569Z,8.77
2022-10-12T00:05:10.194Z,8.57
2022-10-12T00:07:37.278Z,8.30
2022-10-12T00:10:04.469Z,8.30
2022-10-12T00:12:31.002Z,8.40
2022-10-12T00:14:57.631Z,7.55
2022-10-12T00:17:24.083Z,9.25
2022-10-12T00:19:50.737Z,8.40
2022-10-12T00:22:17.181Z,8.05
2022-10-12T00:24:43.652Z,8.55
2022-10-12T00:27:10.105Z,7.50
2022-10-12T00:29:36.540Z,7.15
2022-10-12T00:32:02.987Z,7.25
2022-10-12T00:34:29.409Z,8.80
2022-10-12T00:36:56.570Z,7.85
2022-10-12T00:39:23.000Z,8.00
2022-10-12T00:41:49.473Z,8.20
2022-10-12T00:44:41.009Z,8.48
2022-10-12T00:47:22.658Z,7.88
2022-10-12T00:49:56.633Z,8.77
2022-10-12T00:52:28.632Z,8.18
2022-10-12T00:54:55.839Z,7.47
2022-10-12T00:57:23.530Z,7.80
2022-10-12T00:59:54.767Z,10.68
2022-10-12T01:02:24.155Z,8.32
2022-10-12T01:04:50.774Z,8.38
2022-10-12T01:07:17.536Z,8.70
2022-10-12T01:09:44.086Z,9.40
2022-10-12T01:12:11.285Z,8.45
2022-10-12T01:14:37.833Z,8.20
2022-10-12T01:17:48.458Z,8.40
2022-10-12T01:20:42.847Z,8.80
2022-10-12T01:23:18.595Z,8.88
2022-10-12T01:26:03.783Z,8.82
2022-10-12T01:29:02.311Z,9.30
2022-10-12T01:32:03.524Z,9.15
2022-10-12T01:34:40.317Z,8.65
2022-10-12T01:37:21.375Z,9.43
2022-10-12T01:39:54.357Z,8.75
2022-10-12T01:42:26.582Z,8.18
2022-10-12T01:45:08.862Z,9.25
2022-10-12T01:47:37.766Z,9.05
2022-10-12T01:50:08.107Z,9.13
2022-10-12T01:52:51.814Z,9.00
2022-10-12T01:55:38.961Z,9.07
2022-10-12T01:58:11.438Z,8.57
2022-10-12T02:00:52.026Z,8.77
2022-10-12T02:03:44.692Z,9.63
2022-10-12T02:06:18.701Z,10.38
2022-10-12T02:08:52.123Z,9.88
2022-10-12T02:11:21.453Z,10.40
2022-10-12T02:13:53.506Z,9.05
2022-10-12T02:16:24.746Z,10.25
2022-10-12T02:18:54.682Z,9.13
2022-10-12T02:21:27.169Z,8.98
2022-10-12T02:23:56.444Z,9.13
2022-10-12T02:26:23.771Z,9.30
2022-10-12T02:28:50.950Z,9.90
2022-10-12T02:31:35.214Z,10.20
2022-10-12T02:34:10.662Z,9.27
2022-10-12T02:37:11.720Z,9.15
2022-10-12T02:40:15.104Z,10.48
2022-10-12T02:43:09.217Z,9.35
2022-10-12T02:45:38.417Z,9.75
2022-10-12T02:48:06.147Z,10.15
2022-10-12T02:50:33.312Z,10.65
2022-10-12T02:52:59.819Z,10.00
2022-10-12T02:55:26.311Z,9.52
2022-10-12T02:57:52.820Z,10.35
2022-10-12T03:00:19.281Z,9.93
2022-10-12T03:02:45.662Z,9.38
2022-10-12T03:05:12.071Z,9.75
2022-10-12T03:07:38.662Z,9.20
2022-10-12T03:10:05.621Z,9.20
2022-10-12T03:12:32.038Z,9.10
2022-10-12T03:14:58.487Z,10.00
2022-10-12T03:17:24.879Z,10.77
2022-10-12T03:19:51.300Z,10.13
2022-10-12T03:22:17.722Z,9.98
2022-10-12T03:24:44.160Z,10.75
2022-10-12T03:27:10.583Z,9.68
2022-10-12T03:29:37.002Z,10.10
2022-10-12T03:32:03.510Z,9.35
2022-10-12T03:34:29.953Z,9.40
2022-10-12T03:36:56.362Z,10.50
2022-10-12T03:39:22.773Z,10.75
2022-10-12T03:41:49.205Z,9.77
2022-10-12T03:44:15.681Z,9.50
2022-10-12T03:46:42.066Z,8.63
2022-10-12T03:49:08.674Z,10.25
2022-10-12T03:51:35.224Z,9.70
2022-10-12T03:54:01.639Z,10.15
2022-10-12T03:56:28.232Z,10.50
2022-10-12T03:58:54.725Z,10.18
2022-10-12T04:01:21.197Z,10.23
2022-10-12T04:03:47.632Z,9.63
2022-10-12T04:06:14.087Z,17.67
2022-10-12T04:08:41.836Z,14.32
2022-10-12T04:11:08.522Z,13.15
2022-10-12T04:13:35.365Z,14.43
2022-10-12T04:16:06.332Z,11.50
2022-10-12T04:18:34.346Z,11.52
2022-10-12T04:21:01.629Z,11.32
2022-10-12T04:23:28.588Z,16.15
2022-10-12T04:25:54.978Z,13.77
2022-10-12T04:28:21.470Z,10.55
2022-10-12T04:30:47.921Z,10.95
2022-10-12T04:33:14.387Z,9.95
2022-10-12T04:35:40.785Z,10.88
2022-10-12T04:38:07.222Z,11.80
2022-10-12T04:40:33.654Z,10.25
2022-10-12T04:43:00.220Z,9.88
2022-10-12T04:45:26.634Z,10.13
2022-10-12T04:47:53.026Z,10.55
2022-10-12T04:50:19.823Z,10.90
2022-10-12T04:52:46.462Z,11.07
2022-10-12T04:55:12.874Z,9.60
2022-10-12T04:57:39.742Z,11.77
2022-10-12T05:00:07.767Z,10.30
2022-10-12T05:02:34.186Z,9.90
2022-10-12T05:05:00.659Z,9.77
2022-10-12T05:07:27.113Z,10.25
2022-10-12T05:09:53.648Z,10.20
2022-10-12T05:12:20.096Z,9.98
2022-10-12T05:14:46.585Z,11.25
2022-10-12T05:17:13.038Z,11.32
2022-10-12T05:19:39.553Z,12.50
2022-10-12T05:22:06.035Z,11.95
2022-10-12T05:24:32.574Z,11.43
2022-10-12T05:26:59.005Z,11.00
2022-10-12T05:29:25.465Z,12.68
2022-10-12T05:31:51.975Z,13.15
2022-10-12T05:34:18.432Z,11.15
2022-10-12T05:36:45.284Z,11.32
2022-10-12T05:39:11.710Z,10.95
2022-10-12T05:41:38.123Z,10.90
2022-10-12T05:44:04.783Z,10.73
2022-10-12T05:46:31.194Z,10.02
2022-10-12T05:48:57.654Z,11.25
2022-10-12T05:51:28.568Z,10.15
2022-10-12T05:53:55.356Z,10.68
2022-10-12T05:56:21.847Z,11.68
2022-10-12T05:58:48.289Z,11.05
2022-10-12T06:01:14.775Z,10.07
2022-10-12T06:03:41.218Z,10.80
2022-10-12T06:06:07.892Z,10.35
2022-10-12T06:08:34.947Z,10.85
2022-10-12T06:11:01.689Z,13.00
2022-10-12T06:13:28.252Z,10.93
2022-10-12T06:15:55.003Z,10.43
2022-10-12T06:18:22.263Z,11.18
2022-10-12T06:20:56.544Z,11.55
2022-10-12T06:23:35.483Z,11.13
2022-10-12T06:26:02.440Z,10.98
2022-10-12T06:28:29.210Z,13.35
2022-10-12T06:30:57.965Z,9.98
2022-10-12T06:33:24.942Z,11.95
2022-10-12T06:35:51.855Z,11.15
2022-10-12T06:38:18.335Z,11.50
2022-10-12T06:40:45.106Z,13.70
2022-10-12T06:43:11.626Z,20.38
2022-10-12T06:45:38.376Z,15.75
2022-10-12T06:48:05.563Z,15.73
2022-10-12T06:50:31.952Z,13.65
2022-10-12T06:52:58.394Z,13.77
2022-10-12T06:55:24.983Z,12.88
2022-10-12T06:57:51.443Z,13.85
2022-10-12T07:00:18.062Z,13.55
2022-10-12T07:02:44.557Z,12.27
2022-10-12T07:05:11.036Z,12.75
2022-10-12T07:07:37.962Z,11.80
2022-10-12T07:10:05.394Z,13.55
2022-10-12T07:12:31.782Z,13.93
2022-10-12T07:14:59.284Z,14.45
2022-10-12T07:17:25.755Z,12.80
2022-10-12T07:19:52.208Z,13.68
2022-10-12T07:22:18.647Z,14.50
2022-10-12T07:24:45.089Z,14.75
2022-10-12T07:27:11.737Z,13.88
2022-10-12T07:29:39.873Z,15.00
2022-10-12T07:32:07.481Z,14.52
2022-10-12T07:34:34.782Z,15.60
2022-10-12T07:37:01.443Z,13.95
2022-10-12T07:39:28.153Z,15.20
2022-10-12T07:41:55.085Z,14.52
2022-10-12T07:44:22.504Z,13.52
2022-10-12T07:46:49.210Z,13.80
2022-10-12T07:49:16.557Z,14.73
2022-10-12T07:51:43.305Z,14.02
2022-10-12T07:54:10.275Z,13.65
2022-10-12T07:56:36.876Z,13.75
2022-10-12T07:59:03.289Z,14.23
2022-10-12T08:01:31.206Z,12.85
2022-10-12T08:04:01.474Z,12.63
2022-10-12T08:06:30.794Z,12.27
2022-10-12T08:08:58.551Z,13.50
2022-10-12T08:11:25.083Z,12.80
2022-10-12T08:13:51.537Z,12.30
2022-10-12T08:16:21.026Z,11.38
2022-10-12T08:18:47.748Z,10.75
2022-10-12T08:21:15.786Z,11.77
2022-10-12T08:23:44.406Z,13.15
2022-10-12T08:26:12.179Z,10.70
2022-10-12T08:28:39.055Z,10.55
2022-10-12T08:31:11.899Z,10.02
2022-10-12T08:33:38.454Z,10.38
2022-10-12T08:36:06.954Z,10.48
2022-10-12T08:38:34.668Z,10.02
2022-10-12T08:41:21.283Z,9.48
2022-10-12T08:44:08.508Z,8.98
2022-10-12T08:46:35.169Z,8.82
2022-10-12T08:49:05.154Z,8.57
2022-10-12T08:51:40.115Z,9.23
2022-10-12T08:54:11.400Z,8.00
2022-10-12T08:56:40.175Z,8.93
2022-10-12T08:59:13.575Z,7.90
2022-10-12T09:01:57.226Z,9.15
2022-10-12T09:04:50.773Z,6.22
2022-10-12T09:07:26.591Z,6.22
2022-10-12T09:10:14.845Z,6.55
2022-10-12T09:12:55.458Z,6.40
2022-10-12T09:15:26.425Z,5.80
2022-10-12T09:17:55.467Z,5.22
2022-10-12T09:20:21.868Z,5.35
2022-10-12T09:22:58.641Z,4.63
2022-10-12T09:25:27.564Z,4.78
2022-10-12T09:27:57.855Z,4.80
2022-10-12T09:30:24.275Z,3.67
2022-10-12T09:33:09.919Z,3.88
2022-10-12T09:35:37.083Z,3.50
2022-10-12T09:38:03.860Z,3.85
2022-10-12T09:40:32.701Z,3.55
2022-10-12T09:43:01.810Z,4.00
2022-10-12T09:45:32.291Z,4.38
2022-10-12T09:48:31.285Z,4.13
2022-10-12T09:51:00.733Z,5.25
2022-10-12T09:53:27.500Z,4.55
2022-10-12T09:55:58.370Z,4.50
2022-10-12T09:58:26.977Z,3.70
2022-10-12T10:01:33.149Z,4.07
2022-10-12T10:04:32.085Z,4.30
2022-10-12T10:07:18.183Z,3.65
2022-10-12T10:09:45.195Z,4.13
2022-10-12T10:12:29.776Z,6.50
2022-10-12T10:14:58.085Z,3.40
2022-10-12T10:17:28.083Z,3.10
2022-10-12T10:19:56.772Z,3.60
2022-10-12T10:22:24.412Z,3.35
2022-10-12T10:24:56.387Z,4.18
2022-10-12T10:27:34.237Z,3.72
2022-10-12T10:30:29.518Z,3.55
2022-10-12T10:33:15.522Z,3.50
2022-10-12T10:35:54.344Z,3.30
2022-10-12T10:38:20.963Z,3.90
2022-10-12T10:40:52.548Z,3.78
2022-10-12T10:43:27.719Z,3.67
2022-10-12T10:46:03.117Z,2.22
2022-10-12T10:48:35.075Z,3.30
2022-10-12T10:51:05.110Z,3.70
2022-10-12T10:53:44.124Z,3.75
2022-10-12T10:56:16.398Z,3.60
2022-10-12T10:58:46.856Z,3.90
2022-10-12T11:01:28.400Z,4.10
2022-10-12T11:04:01.173Z,4.18
2022-10-12T11:06:43.192Z,4.00
2022-10-12T11:09:15.490Z,3.03
2022-10-12T11:11:45.441Z,3.53
2022-10-12T11:14:16.770Z,1.38
2022-10-12T11:16:55.361Z,2.40
2022-10-12T11:19:30.140Z,1.92
2022-10-12T11:22:06.163Z,2.95
2022-10-12T11:24:44.262Z,2.13
2022-10-12T11:27:22.764Z,2.10
2022-10-12T11:30:08.384Z,1.27
2022-10-12T11:32:41.472Z,3.10
2022-10-12T11:35:15.666Z,2.85
2022-10-12T11:38:14.903Z,2.38
2022-10-12T11:41:09.404Z,2.35
2022-10-12T11:43:50.591Z,3.08
2022-10-12T11:48:54.947Z,2.83
2022-10-12T11:51:21.383Z,2.60
2022-10-12T11:54:27.712Z,2.50
2022-10-12T11:56:58.669Z,3.78
2022-10-12T11:59:38.939Z,3.00
2022-10-12T12:02:27.163Z,3.65
2022-10-12T12:04:54.473Z,3.45
2022-10-12T12:07:54.456Z,3.63
2022-10-12T12:10:27.576Z,2.83
2022-10-12T12:13:17.542Z,2.63
2022-10-12T12:16:13.148Z,3.28
2022-10-12T12:19:10.646Z,2.67
2022-10-12T12:22:14.475Z,2.70
2022-10-12T12:24:52.624Z,2.95
2022-10-12T12:27:32.798Z,2.85
2022-10-12T12:30:24.482Z,2.92
2022-10-12T12:33:01.933Z,2.60
2022-10-12T12:35:31.474Z,2.40
2022-10-12T12:38:06.272Z,2.30
2022-10-12T12:40:33.517Z,1.42
2022-10-12T12:43:36.185Z,2.17
2022-10-12T12:46:20.910Z,1.45
2022-10-12T12:48:47.307Z,2.00
2022-10-12T12:51:15.235Z,2.72
2022-10-12T12:53:56.026Z,0.63
2022-10-12T12:56:59.764Z,2.63
2022-10-12T12:59:52.782Z,2.20
2022-10-12T13:02:49.332Z,2.30
2022-10-12T13:05:45.083Z,1.23
2022-10-12T13:08:35.210Z,2.13
2022-10-12T13:11:29.594Z,0.80
2022-10-12T13:14:12.131Z,2.05
2022-10-12T13:19:55.165Z,1.00
2022-10-12T13:22:29.433Z,0.73
2022-10-12T13:25:03.228Z,1.90
2022-10-12T13:27:49.816Z,1.90
2022-10-12T13:30:21.939Z,1.77
2022-10-12T13:32:59.010Z,2.42
2022-10-12T13:35:38.672Z,2.30
2022-10-12T13:38:27.001Z,3.05
2022-10-12T13:41:02.325Z,2.47
2022-10-12T13:43:34.045Z,2.65
2022-10-12T13:46:00.758Z,0.73
2022-10-12T13:48:54.020Z,1.90
2022-10-12T13:51:28.896Z,2.88
2022-10-12T13:53:56.148Z,1.33
2022-10-12T13:56:29.002Z,2.42
2022-10-12T13:59:05.577Z,2.13
2022-10-12T14:01:51.650Z,2.72
2022-10-12T14:04:18.054Z,2.42
2022-10-12T14:06:49.462Z,2.70
2022-10-12T14:09:20.800Z,1.90
2022-10-12T14:11:49.042Z,0.90
2022-10-12T14:14:31.617Z,2.90
2022-10-12T14:16:58.252Z,3.08
2022-10-12T14:19:40.050Z,2.45
2022-10-12T14:22:07.587Z,2.95
2022-10-12T14:24:37.360Z,2.92
2022-10-12T14:27:06.401Z,2.10
2022-10-12T14:29:39.395Z,1.13
2022-10-12T14:32:07.622Z,3.88
2022-10-12T14:35:08.807Z,2.65
2022-10-12T14:37:35.233Z,2.55
2022-10-12T14:40:24.075Z,3.17
2022-10-12T14:42:57.688Z,2.20
2022-10-12T14:45:25.898Z,2.90
2022-10-12T14:47:53.062Z,2.70
2022-10-12T14:50:21.686Z,3.60
2022-10-12T14:52:50.427Z,3.13
2022-10-12T14:55:19.882Z,3.15
2022-10-12T14:57:47.251Z,0.88
2022-10-12T15:00:18.676Z,3.42
2022-10-12T15:02:45.414Z,2.85
2022-10-12T15:05:14.133Z,3.10
2022-10-12T15:07:41.094Z,3.67
2022-10-12T15:10:08.396Z,3.15
2022-10-12T15:12:35.346Z,3.33
2022-10-12T15:15:17.617Z,3.35
2022-10-12T15:17:44.037Z,3.50
2022-10-12T15:20:11.003Z,3.00
2022-10-12T15:22:37.456Z,3.55
2022-10-12T15:25:18.047Z,3.60
2022-10-12T15:27:44.477Z,3.85
2022-10-12T15:30:11.556Z,3.92
2022-10-12T15:32:38.030Z,3.75
2022-10-12T15:35:20.029Z,3.92
2022-10-12T15:37:46.818Z,2.88
2022-10-12T15:40:13.709Z,3.67
2022-10-12T15:42:42.428Z,3.25
2022-10-12T15:45:24.702Z,3.83
2022-10-12T15:47:52.125Z,4.00
2022-10-12T15:50:24.646Z,2.92
2022-10-12T15:52:51.582Z,3.75
2022-10-12T15:55:24.218Z,4.50
2022-10-12T15:57:52.578Z,4.15
2022-10-12T16:00:22.232Z,5.00
2022-10-12T16:02:48.760Z,4.57
2022-10-12T16:05:30.426Z,4.65
2022-10-12T16:07:57.114Z,4.85
2022-10-12T16:10:26.756Z,4.57
2022-10-12T16:12:54.750Z,5.80
2022-10-12T16:15:29.446Z,7.68
2022-10-12T16:17:56.650Z,7.82
2022-10-12T16:20:23.891Z,10.68
2022-10-12T16:22:51.334Z,8.13
2022-10-12T16:25:21.414Z,6.82
2022-10-12T16:27:49.284Z,5.68
2022-10-12T16:30:16.025Z,5.45
2022-10-12T16:32:42.504Z,5.60
2022-10-12T16:35:09.402Z,6.78
2022-10-12T16:37:36.350Z,5.68
2022-10-12T16:40:04.993Z,11.25
2022-10-12T16:42:31.716Z,29.33
2022-10-12T16:44:58.143Z,25.70
2022-10-12T16:47:25.465Z,38.03
2022-10-12T16:49:53.823Z,7.45
2022-10-12T16:52:24.374Z,7.30
2022-10-12T16:54:51.964Z,6.00
2022-10-12T16:57:18.473Z,16.77
2022-10-12T16:59:44.929Z,13.35
2022-10-12T17:02:12.122Z,12.18
2022-10-12T17:04:38.563Z,7.40
2022-10-12T17:07:05.244Z,7.80
2022-10-12T17:09:31.749Z,13.27
2022-10-12T17:11:58.375Z,9.52
2022-10-12T17:14:24.849Z,7.95
2022-10-12T17:16:52.291Z,19.45
2022-10-12T17:19:21.414Z,11.88
2022-10-12T17:21:48.445Z,13.55
2022-10-12T17:24:18.205Z,11.10
2022-10-12T17:26:45.610Z,10.23
2022-10-12T17:29:15.721Z,9.82
2022-10-12T17:31:43.102Z,10.32
2022-10-12T17:34:18.313Z,9.48
2022-10-12T17:36:45.283Z,7.78
2022-10-12T17:39:11.798Z,7.57
2022-10-12T17:41:38.266Z,11.02
2022-10-12T17:44:04.785Z,9.18
2022-10-12T17:46:31.270Z,29.35
2022-10-12T17:48:59.210Z,9.70
2022-10-12T17:51:26.390Z,8.35
2022-10-12T17:53:53.529Z,11.02
2022-10-12T17:56:20.156Z,10.52
2022-10-12T17:58:46.655Z,11.75
2022-10-12T18:01:15.580Z,12.32
2022-10-12T18:03:44.571Z,11.02
2022-10-12T18:06:15.627Z,8.85
2022-10-12T18:08:43.227Z,7.88
2022-10-12T18:11:10.636Z,11.20
2022-10-12T18:13:38.013Z,9.30
2022-10-12T18:16:10.486Z,11.30
2022-10-12T18:18:38.152Z,7.35
2022-10-12T18:21:10.525Z,7.38
2022-10-12T18:23:37.403Z,9.18
2022-10-12T18:26:05.407Z,11.52
2022-10-12T18:28:32.019Z,16.52
2022-10-12T18:30:58.568Z,18.75
2022-10-12T18:33:25.705Z,14.07
2022-10-12T18:35:52.130Z,11.77
2022-10-12T18:38:18.840Z,14.57
2022-10-12T18:40:47.425Z,11.02
2022-10-12T18:43:14.334Z,12.40
2022-10-12T18:45:44.727Z,9.75
2022-10-12T18:48:12.325Z,9.05
2022-10-12T18:50:39.873Z,10.00
2022-10-12T18:53:06.772Z,8.73
2022-10-12T18:55:37.950Z,8.35
2022-10-12T18:58:04.359Z,8.80
2022-10-12T19:00:31.653Z,9.65
2022-10-12T19:02:58.335Z,10.32
2022-10-12T19:05:24.933Z,9.38
2022-10-12T19:07:51.355Z,12.63
2022-10-12T19:10:17.829Z,10.75
2022-10-12T19:12:45.819Z,10.48
2022-10-12T19:15:12.572Z,11.98
2022-10-12T19:17:39.044Z,11.82
2022-10-12T19:20:06.167Z,11.93
2022-10-12T19:22:33.334Z,11.05
2022-10-12T19:24:59.759Z,10.52
2022-10-12T19:27:26.213Z,10.80
2022-10-12T19:29:52.744Z,9.30
2022-10-12T19:32:19.591Z,10.52
2022-10-12T19:34:46.259Z,9.90
2022-10-12T19:37:12.739Z,9.77
2022-10-12T19:39:44.455Z,10.25
2022-10-12T19:42:10.952Z,11.13
2022-10-12T19:44:37.387Z,10.63
2022-10-12T19:47:03.924Z,9.60
2022-10-12T19:49:35.770Z,12.32
2022-10-12T19:52:03.672Z,11.05
2022-10-12T19:54:34.097Z,12.77
2022-10-12T19:57:02.401Z,12.18
2022-10-12T19:59:28.901Z,11.40
2022-10-12T20:01:55.339Z,9.68
2022-10-12T20:04:21.936Z,10.15
2022-10-12T20:06:48.369Z,11.05
2022-10-12T20:09:14.843Z,10.77
2022-10-12T20:11:41.284Z,13.55
2022-10-12T20:14:08.007Z,14.93
2022-10-12T20:16:35.397Z,17.98
2022-10-12T20:19:02.528Z,18.35
2022-10-12T20:21:28.944Z,18.08
2022-10-12T20:23:55.486Z,13.95
2022-10-12T20:26:24.111Z,14.93
2022-10-12T20:28:51.911Z,13.13
2022-10-12T20:31:22.908Z,13.18
2022-10-12T20:33:52.394Z,13.75
2022-10-12T20:36:22.456Z,13.07
2022-10-12T20:38:49.258Z,14.43
2022-10-12T20:41:21.206Z,12.35
2022-10-12T20:43:47.756Z,12.45
2022-10-12T20:46:15.996Z,11.95
2022-10-12T20:48:44.412Z,12.77
2022-10-12T20:51:18.937Z,12.95
2022-10-12T20:53:45.430Z,13.53
2022-10-12T20:56:12.032Z,15.13
2022-10-12T20:58:38.623Z,14.50
2022-10-12T21:01:07.299Z,13.20
2022-10-12T21:03:34.683Z,13.52
2022-10-12T21:06:06.823Z,12.00
2022-10-12T21:08:33.415Z,12.02
2022-10-12T21:11:00.258Z,12.57
2022-10-12T21:13:29.809Z,11.85
2022-10-12T21:15:56.642Z,11.75
2022-10-12T21:18:23.162Z,10.38
2022-10-12T21:21:04.928Z,10.55
2022-10-12T21:23:31.371Z,10.63
2022-10-12T21:25:57.890Z,11.32
2022-10-12T21:28:24.484Z,10.85
2022-10-12T21:30:50.998Z,11.82
2022-10-12T21:33:18.413Z,12.00
2022-10-12T21:35:45.069Z,10.15
2022-10-12T21:38:11.540Z,10.98
2022-10-12T21:40:37.993Z,13.27
2022-10-12T21:43:04.434Z,29.33
2022-10-12T21:45:30.874Z,14.77
2022-10-12T21:47:58.454Z,16.63
2022-10-12T21:50:24.963Z,14.27
2022-10-12T21:52:51.407Z,11.90
2022-10-12T21:55:17.821Z,13.75
2022-10-12T21:57:44.648Z,13.40
2022-10-12T22:00:11.867Z,13.68
2022-10-12T22:02:38.298Z,12.02
2022-10-12T22:05:05.143Z,14.52
2022-10-12T22:07:31.548Z,14.68
2022-10-12T22:09:59.078Z,12.30
2022-10-12T22:12:25.503Z,12.52
2022-10-12T22:14:51.938Z,15.32
2022-10-12T22:17:18.382Z,13.50
2022-10-12T22:19:44.827Z,13.27
2022-10-12T22:22:11.201Z,13.73
2022-10-12T22:24:37.665Z,12.68
2022-10-12T22:27:04.178Z,11.68
2022-10-12T22:29:30.722Z,12.32
2022-10-12T22:31:57.155Z,13.43
2022-10-12T22:34:23.606Z,12.00
2022-10-12T22:36:50.464Z,12.93
2022-10-12T22:39:17.704Z,14.13
2022-10-12T22:41:44.258Z,12.55
2022-10-12T22:44:10.779Z,13.15
2022-10-12T22:46:37.196Z,12.90
2022-10-12T22:49:04.190Z,13.60
2022-10-12T22:51:33.159Z,13.02
2022-10-12T22:54:00.356Z,13.65
2022-10-12T22:56:27.225Z,13.52
2022-10-12T22:58:58.343Z,14.48
2022-10-12T23:01:25.551Z,12.90
2022-10-12T23:03:53.232Z,15.10
2022-10-12T23:06:20.668Z,14.60
2022-10-12T23:08:47.709Z,14.85
2022-10-12T23:11:17.089Z,15.43
2022-10-12T23:13:44.383Z,15.15
2022-10-12T23:16:22.692Z,14.18
2022-10-12T23:18:59.251Z,15.18
2022-10-12T23:21:27.297Z,14.90
2022-10-12T23:23:53.949Z,15.07
2022-10-12T23:26:23.041Z,14.85
2022-10-12T23:28:50.114Z,14.10
2022-10-12T23:31:22.751Z,15.73
2022-10-12T23:33:49.357Z,16.23
2022-10-12T23:36:17.414Z,15.65
2022-10-12T23:38:45.014Z,15.65
2022-10-12T23:41:13.025Z,15.38
2022-10-12T23:43:39.790Z,15.52
2022-10-12T23:46:06.338Z,15.32
2022-10-12T23:48:33.808Z,15.43
2022-10-12T23:51:01.011Z,15.60
2022-10-12T23:53:27.626Z,15.43
2022-10-12T23:55:54.052Z,16.10
2022-10-12T23:58:20.802Z,17.88
